09341 ULOO-XLWF
Flight info
| Callsign | 09341 |
|---|---|
| Flight time | N/A |
| Altitude | FL070 |
| Route | ULOO SID AMBIS T394 RODUK T758 DITOT IPRUT STAR XLWF |
| Aircraft | AN22/H-S/N |
Departure
| Time | 2026-04-11 17:43 |
|---|---|
| Airport | Princess Olga Pskov International Airport (ULOO) |
Arrival
| Time | N/A |
|---|---|
| Airport | XLWF |
| Time | Latitude | Longitude | Altitude | Speed | Heading |
|---|---|---|---|---|---|
| 2026-04-11 17:33 | 57.78901 | 28.39149 | 170 ft | 0 kts | 199° |
| 2026-04-11 17:35 | 57.78900 | 28.39149 | 170 ft | 0 kts | 199° |
| 2026-04-11 17:35 | 57.78858 | 28.39128 | 170 ft | 8 kts | 180° |
| 2026-04-11 17:36 | 57.78822 | 28.39185 | 170 ft | 7 kts | 107° |
| 2026-04-11 17:36 | 57.78804 | 28.39271 | 170 ft | 9 kts | 127° |
| 2026-04-11 17:36 | 57.78753 | 28.39287 | 170 ft | 9 kts | 194° |
| 2026-04-11 17:36 | 57.78711 | 28.39265 | 170 ft | 7 kts | 196° |
| 2026-04-11 17:37 | 57.78629 | 28.39211 | 170 ft | 14 kts | 200° |
| 2026-04-11 17:37 | 57.78545 | 28.39157 | 170 ft | 12 kts | 198° |
| 2026-04-11 17:37 | 57.78468 | 28.39109 | 170 ft | 11 kts | 198° |
| 2026-04-11 17:37 | 57.78397 | 28.39065 | 170 ft | 11 kts | 198° |
| 2026-04-11 17:38 | 57.78320 | 28.39017 | 170 ft | 14 kts | 198° |
| 2026-04-11 17:38 | 57.78211 | 28.38950 | 170 ft | 17 kts | 198° |
| 2026-04-11 17:38 | 57.78106 | 28.38885 | 170 ft | 15 kts | 198° |
| 2026-04-11 17:38 | 57.78008 | 28.38826 | 170 ft | 14 kts | 198° |
| 2026-04-11 17:39 | 57.77917 | 28.38786 | 170 ft | 13 kts | 179° |
| 2026-04-11 17:39 | 57.77834 | 28.38827 | 170 ft | 13 kts | 160° |
| 2026-04-11 17:39 | 57.77735 | 28.38893 | 170 ft | 14 kts | 160° |
| 2026-04-11 17:39 | 57.77714 | 28.38906 | 170 ft | 0 kts | 160° |
| 2026-04-11 17:40 | 57.77714 | 28.38907 | 170 ft | 0 kts | 160° |
| 2026-04-11 17:40 | 57.77713 | 28.38907 | 170 ft | 0 kts | 160° |
| 2026-04-11 17:40 | 57.77695 | 28.38919 | 170 ft | 11 kts | 160° |
| 2026-04-11 17:40 | 57.77621 | 28.38972 | 170 ft | 9 kts | 152° |
| 2026-04-11 17:41 | 57.77604 | 28.39056 | 170 ft | 7 kts | 76° |
| 2026-04-11 17:41 | 57.77633 | 28.39098 | 170 ft | 0 kts | 16° |
| 2026-04-11 17:42 | 57.77634 | 28.39098 | 170 ft | 0 kts | 16° |
| 2026-04-11 17:42 | 57.77646 | 28.39105 | 170 ft | 14 kts | 16° |
| 2026-04-11 17:43 | 57.78545 | 28.39658 | 172 ft | 119 kts | 17° |
| 2026-04-11 17:43 | 57.79396 | 28.40212 | 476 ft | 134 kts | 19° |
| 2026-04-11 17:43 | 57.80249 | 28.41359 | 548 ft | 176 kts | 47° |
| 2026-04-11 17:43 | 57.80827 | 28.43585 | 770 ft | 206 kts | 67° |
| 2026-04-11 17:44 | 57.81353 | 28.46279 | 992 ft | 232 kts | 69° |
| 2026-04-11 17:44 | 57.81968 | 28.49156 | 1424 ft | 245 kts | 66° |
| 2026-04-11 17:44 | 57.82683 | 28.52120 | 1841 ft | 256 kts | 64° |
| 2026-04-11 17:44 | 57.83492 | 28.55170 | 2248 ft | 267 kts | 60° |
| 2026-04-11 17:45 | 57.84383 | 28.58289 | 2645 ft | 277 kts | 59° |
| 2026-04-11 17:45 | 57.85351 | 28.61483 | 3046 ft | 287 kts | 60° |
| 2026-04-11 17:45 | 57.86365 | 28.64742 | 3459 ft | 291 kts | 59° |
| 2026-04-11 17:45 | 57.87379 | 28.67968 | 3855 ft | 284 kts | 59° |
| 2026-04-11 17:46 | 57.88371 | 28.71110 | 4250 ft | 276 kts | 59° |
| 2026-04-11 17:46 | 57.89339 | 28.74165 | 4649 ft | 270 kts | 59° |
| 2026-04-11 17:46 | 57.90285 | 28.77154 | 5049 ft | 267 kts | 59° |
| 2026-04-11 17:46 | 57.91238 | 28.80164 | 5458 ft | 270 kts | 59° |
| 2026-04-11 17:47 | 57.92200 | 28.83207 | 5863 ft | 273 kts | 59° |
| 2026-04-11 17:47 | 57.93169 | 28.86281 | 6275 ft | 275 kts | 59° |
| 2026-04-11 17:47 | 57.94150 | 28.89395 | 6683 ft | 279 kts | 59° |
| 2026-04-11 17:47 | 57.95141 | 28.92552 | 7087 ft | 283 kts | 59° |
| 2026-04-11 17:48 | 57.97147 | 28.98961 | 7893 ft | 287 kts | 59° |
| 2026-04-11 17:48 | 57.98162 | 29.02217 | 8295 ft | 289 kts | 59° |
| 2026-04-11 17:48 | 57.99185 | 29.05505 | 8625 ft | 293 kts | 59° |
| 2026-04-11 17:49 | 58.01177 | 29.12276 | 9283 ft | 299 kts | 64° |
| 2026-04-11 17:49 | 58.02652 | 29.19658 | 9844 ft | 307 kts | 72° |
| 2026-04-11 17:50 | 58.03276 | 29.23553 | 9956 ft | 316 kts | 73° |
| 2026-04-11 17:50 | 58.03868 | 29.27596 | 9988 ft | 326 kts | 75° |
| 2026-04-11 17:50 | 58.04447 | 29.31787 | 9994 ft | 336 kts | 76° |
| 2026-04-11 17:50 | 58.05019 | 29.36103 | 9994 ft | 344 kts | 76° |
| 2026-04-11 17:51 | 58.05591 | 29.40528 | 10093 ft | 349 kts | 76° |
| 2026-04-11 17:51 | 58.06709 | 29.49375 | 10604 ft | 343 kts | 76° |
| 2026-04-11 17:51 | 58.07251 | 29.53717 | 10851 ft | 338 kts | 76° |
| 2026-04-11 17:52 | 58.07781 | 29.57988 | 11101 ft | 332 kts | 76° |
| 2026-04-11 17:52 | 58.08302 | 29.62197 | 11351 ft | 327 kts | 76° |
| 2026-04-11 17:52 | 58.08812 | 29.66335 | 11596 ft | 323 kts | 76° |
| 2026-04-11 17:52 | 58.09317 | 29.70443 | 11844 ft | 319 kts | 76° |
| 2026-04-11 17:53 | 58.09817 | 29.74515 | 12099 ft | 319 kts | 76° |
| 2026-04-11 17:53 | 58.10316 | 29.78589 | 12355 ft | 320 kts | 76° |
| 2026-04-11 17:53 | 58.10818 | 29.82693 | 12536 ft | 323 kts | 76° |
| 2026-04-11 17:53 | 58.11322 | 29.86828 | 12718 ft | 325 kts | 76° |
| 2026-04-11 17:54 | 58.11830 | 29.90995 | 12895 ft | 327 kts | 76° |
| 2026-04-11 17:54 | 58.12339 | 29.95189 | 13071 ft | 329 kts | 76° |
| 2026-04-11 17:54 | 58.12850 | 29.99408 | 13247 ft | 331 kts | 76° |
| 2026-04-11 17:54 | 58.13361 | 30.03646 | 13422 ft | 332 kts | 76° |
| 2026-04-11 17:55 | 58.13874 | 30.07903 | 13598 ft | 334 kts | 76° |
| 2026-04-11 17:55 | 58.14353 | 30.11903 | 13762 ft | 335 kts | 76° |
| 2026-04-11 17:55 | 58.14867 | 30.16197 | 13938 ft | 336 kts | 76° |
| 2026-04-11 17:55 | 58.15380 | 30.20501 | 14113 ft | 337 kts | 77° |
| 2026-04-11 17:56 | 58.15893 | 30.24818 | 14289 ft | 337 kts | 77° |
| 2026-04-11 17:56 | 58.16406 | 30.29144 | 14464 ft | 338 kts | 77° |
| 2026-04-11 17:56 | 58.16917 | 30.33480 | 14640 ft | 338 kts | 77° |
| 2026-04-11 17:56 | 58.17428 | 30.37817 | 14816 ft | 339 kts | 76° |
| 2026-04-11 17:57 | 58.17937 | 30.42165 | 14991 ft | 339 kts | 77° |
| 2026-04-11 17:57 | 58.18446 | 30.46520 | 15166 ft | 339 kts | 77° |
| 2026-04-11 17:57 | 58.18953 | 30.50876 | 15341 ft | 339 kts | 77° |
| 2026-04-11 17:57 | 58.19457 | 30.55228 | 15516 ft | 339 kts | 77° |
| 2026-04-11 17:58 | 58.19960 | 30.59590 | 15691 ft | 339 kts | 77° |
| 2026-04-11 17:58 | 58.20459 | 30.63943 | 15866 ft | 339 kts | 77° |
| 2026-04-11 17:58 | 58.20957 | 30.68301 | 16041 ft | 339 kts | 77° |
| 2026-04-11 17:58 | 58.21452 | 30.72653 | 16216 ft | 338 kts | 77° |
| 2026-04-11 17:59 | 58.21944 | 30.77006 | 16390 ft | 338 kts | 77° |
| 2026-04-11 17:59 | 58.22434 | 30.81353 | 16565 ft | 338 kts | 77° |
| 2026-04-11 17:59 | 58.22921 | 30.85694 | 16739 ft | 337 kts | 77° |
| 2026-04-11 17:59 | 58.23407 | 30.90034 | 16884 ft | 338 kts | 77° |
| 2026-04-11 18:00 | 58.23892 | 30.94388 | 16980 ft | 340 kts | 77° |
| 2026-04-11 18:00 | 58.24382 | 30.98791 | 16992 ft | 344 kts | 77° |
| 2026-04-11 18:00 | 58.24877 | 31.03257 | 16993 ft | 349 kts | 77° |
| 2026-04-11 18:00 | 58.25376 | 31.07782 | 16992 ft | 353 kts | 77° |
| 2026-04-11 18:01 | 58.25879 | 31.12359 | 16992 ft | 357 kts | 77° |
| 2026-04-11 18:01 | 58.26242 | 31.15669 | 16992 ft | 360 kts | 77° |
| 2026-04-11 18:01 | 58.26718 | 31.20030 | 16992 ft | 363 kts | 77° |
| 2026-04-11 18:01 | 58.27229 | 31.24726 | 16991 ft | 366 kts | 77° |
| 2026-04-11 18:02 | 58.27746 | 31.29476 | 16992 ft | 369 kts | 77° |
| 2026-04-11 18:02 | 58.28266 | 31.34255 | 16991 ft | 372 kts | 77° |
| 2026-04-11 18:02 | 58.28787 | 31.39068 | 16991 ft | 374 kts | 77° |
| 2026-04-11 18:02 | 58.29307 | 31.43882 | 17183 ft | 371 kts | 77° |
| 2026-04-11 18:03 | 58.29818 | 31.48639 | 17425 ft | 366 kts | 77° |
| 2026-04-11 18:03 | 58.30322 | 31.53348 | 17608 ft | 363 kts | 77° |
| 2026-04-11 18:03 | 58.30821 | 31.58025 | 17767 ft | 361 kts | 78° |
| 2026-04-11 18:03 | 58.31316 | 31.62688 | 17894 ft | 360 kts | 78° |
| 2026-04-11 18:04 | 58.31808 | 31.67341 | 18019 ft | 359 kts | 78° |
| 2026-04-11 18:04 | 58.32297 | 31.71983 | 18143 ft | 359 kts | 78° |
| 2026-04-11 18:04 | 58.32783 | 31.76615 | 18268 ft | 358 kts | 78° |
| 2026-04-11 18:04 | 58.33265 | 31.81226 | 18439 ft | 355 kts | 78° |
| 2026-04-11 18:05 | 58.33743 | 31.85818 | 18591 ft | 354 kts | 78° |
| 2026-04-11 18:05 | 58.34217 | 31.90385 | 18740 ft | 352 kts | 78° |
| 2026-04-11 18:05 | 58.34688 | 31.94940 | 18889 ft | 351 kts | 78° |
| 2026-04-11 18:05 | 58.35154 | 31.99473 | 19038 ft | 349 kts | 78° |
| 2026-04-11 18:06 | 58.35617 | 32.03983 | 19188 ft | 348 kts | 78° |
| 2026-04-11 18:06 | 58.36076 | 32.08479 | 19339 ft | 346 kts | 78° |
| 2026-04-11 18:06 | 58.36532 | 32.12961 | 19480 ft | 345 kts | 78° |
| 2026-04-11 18:06 | 58.36985 | 32.17428 | 19587 ft | 345 kts | 78° |
| 2026-04-11 18:07 | 58.37437 | 32.21903 | 19688 ft | 345 kts | 78° |
| 2026-04-11 18:07 | 58.37887 | 32.26372 | 19788 ft | 345 kts | 78° |
| 2026-04-11 18:07 | 58.38336 | 32.30845 | 19889 ft | 345 kts | 78° |
| 2026-04-11 18:07 | 58.38783 | 32.35319 | 19990 ft | 344 kts | 78° |
| 2026-04-11 18:08 | 58.39228 | 32.39786 | 20091 ft | 344 kts | 78° |
| 2026-04-11 18:08 | 58.39672 | 32.44257 | 20192 ft | 344 kts | 78° |
| 2026-04-11 18:08 | 58.40113 | 32.48722 | 20294 ft | 344 kts | 78° |
| 2026-04-11 18:08 | 58.40553 | 32.53183 | 20395 ft | 343 kts | 78° |
| 2026-04-11 18:09 | 58.40990 | 32.57639 | 20496 ft | 343 kts | 78° |
| 2026-04-11 18:09 | 58.41425 | 32.62093 | 20596 ft | 342 kts | 78° |
| 2026-04-11 18:09 | 58.41858 | 32.66541 | 20696 ft | 342 kts | 78° |
| 2026-04-11 18:09 | 58.42288 | 32.70986 | 20797 ft | 341 kts | 78° |
| 2026-04-11 18:10 | 58.42717 | 32.75421 | 20897 ft | 341 kts | 78° |
| 2026-04-11 18:10 | 58.43142 | 32.79851 | 20986 ft | 341 kts | 78° |
| 2026-04-11 18:10 | 58.43685 | 32.84241 | 20994 ft | 342 kts | 72° |
| 2026-04-11 18:10 | 58.44487 | 32.88515 | 20992 ft | 344 kts | 67° |
| 2026-04-11 18:11 | 58.45481 | 32.92663 | 20992 ft | 345 kts | 63° |
| 2026-04-11 18:11 | 58.46609 | 32.96711 | 20991 ft | 347 kts | 59° |
| 2026-04-11 18:11 | 58.47828 | 33.00686 | 20991 ft | 349 kts | 58° |
| 2026-04-11 18:11 | 58.49109 | 33.04624 | 20991 ft | 350 kts | 56° |
| 2026-04-11 18:12 | 58.50427 | 33.08539 | 20991 ft | 352 kts | 56° |
| 2026-04-11 18:12 | 58.51759 | 33.12465 | 20991 ft | 354 kts | 56° |
| 2026-04-11 18:12 | 58.53088 | 33.16420 | 20991 ft | 355 kts | 56° |
| 2026-04-11 18:12 | 58.54415 | 33.20397 | 20991 ft | 357 kts | 56° |
| 2026-04-11 18:13 | 58.55744 | 33.24402 | 20991 ft | 358 kts | 56° |
| 2026-04-11 18:13 | 58.57075 | 33.28432 | 20991 ft | 359 kts | 57° |
| 2026-04-11 18:13 | 58.58403 | 33.32469 | 21089 ft | 357 kts | 57° |
| 2026-04-11 18:13 | 58.59710 | 33.36455 | 21323 ft | 352 kts | 57° |
| 2026-04-11 18:14 | 58.60995 | 33.40384 | 21562 ft | 346 kts | 57° |
| 2026-04-11 18:14 | 58.62262 | 33.44269 | 21713 ft | 343 kts | 57° |
| 2026-04-11 18:14 | 58.63517 | 33.48126 | 21831 ft | 341 kts | 57° |
| 2026-04-11 18:14 | 58.64769 | 33.51979 | 21914 ft | 341 kts | 57° |
| 2026-04-11 18:15 | 58.66018 | 33.55829 | 21990 ft | 340 kts | 57° |
| 2026-04-11 18:15 | 58.67263 | 33.59676 | 22066 ft | 340 kts | 57° |
| 2026-04-11 18:15 | 58.68505 | 33.63521 | 22142 ft | 340 kts | 57° |
| 2026-04-11 18:15 | 58.69746 | 33.67366 | 22217 ft | 339 kts | 58° |
| 2026-04-11 18:16 | 58.70984 | 33.71211 | 22292 ft | 339 kts | 58° |
| 2026-04-11 18:16 | 58.72219 | 33.75053 | 22368 ft | 339 kts | 58° |
| 2026-04-11 18:16 | 58.73454 | 33.78899 | 22443 ft | 338 kts | 58° |
| 2026-04-11 18:16 | 58.74684 | 33.82739 | 22519 ft | 338 kts | 58° |
| 2026-04-11 18:17 | 58.75912 | 33.86577 | 22594 ft | 337 kts | 58° |
| 2026-04-11 18:17 | 58.77137 | 33.90413 | 22669 ft | 337 kts | 58° |
| 2026-04-11 18:17 | 58.78359 | 33.94245 | 22744 ft | 337 kts | 58° |
| 2026-04-11 18:17 | 58.79580 | 33.98080 | 22820 ft | 336 kts | 58° |
| 2026-04-11 18:18 | 58.80797 | 34.01910 | 22896 ft | 336 kts | 58° |
| 2026-04-11 18:18 | 58.82010 | 34.05735 | 22977 ft | 335 kts | 58° |
| 2026-04-11 18:18 | 58.83225 | 34.09569 | 22991 ft | 337 kts | 58° |
| 2026-04-11 18:18 | 58.84445 | 34.13428 | 22992 ft | 338 kts | 58° |
| 2026-04-11 18:19 | 58.85668 | 34.17304 | 22991 ft | 340 kts | 58° |
| 2026-04-11 18:19 | 58.86900 | 34.21211 | 22991 ft | 342 kts | 58° |
| 2026-04-11 18:19 | 58.88135 | 34.25139 | 22991 ft | 344 kts | 58° |
| 2026-04-11 18:19 | 58.89375 | 34.29086 | 22991 ft | 345 kts | 58° |
| 2026-04-11 18:20 | 58.90619 | 34.33052 | 22991 ft | 347 kts | 59° |
| 2026-04-11 18:20 | 58.91866 | 34.37037 | 22991 ft | 348 kts | 59° |
| 2026-04-11 18:20 | 58.93118 | 34.41042 | 22991 ft | 349 kts | 59° |
| 2026-04-11 18:20 | 58.94373 | 34.45063 | 22991 ft | 350 kts | 59° |
| 2026-04-11 18:21 | 58.95629 | 34.49099 | 22991 ft | 352 kts | 59° |
| 2026-04-11 18:21 | 58.96889 | 34.53152 | 22991 ft | 353 kts | 59° |
| 2026-04-11 18:21 | 58.98151 | 34.57221 | 22991 ft | 354 kts | 59° |
| 2026-04-11 18:21 | 58.99416 | 34.61304 | 22991 ft | 355 kts | 59° |
| 2026-04-11 18:22 | 59.00684 | 34.65405 | 22991 ft | 356 kts | 59° |
| 2026-04-11 18:22 | 59.01951 | 34.69515 | 22991 ft | 356 kts | 59° |
| 2026-04-11 18:22 | 59.03066 | 34.73798 | 22991 ft | 357 kts | 66° |
| 2026-04-11 18:22 | 59.03880 | 34.78336 | 22993 ft | 358 kts | 72° |
| 2026-04-11 18:23 | 59.04507 | 34.83005 | 22992 ft | 359 kts | 76° |
| 2026-04-11 18:23 | 59.05018 | 34.87738 | 22991 ft | 360 kts | 78° |
| 2026-04-11 18:23 | 59.05459 | 34.92511 | 22991 ft | 360 kts | 80° |
| 2026-04-11 18:23 | 59.05858 | 34.97311 | 22991 ft | 361 kts | 81° |
| 2026-04-11 18:24 | 59.06232 | 35.02121 | 22991 ft | 362 kts | 81° |
| 2026-04-11 18:24 | 59.06592 | 35.06950 | 22991 ft | 362 kts | 81° |
| 2026-04-11 18:24 | 59.06943 | 35.11786 | 22991 ft | 363 kts | 81° |
| 2026-04-11 18:24 | 59.07289 | 35.16633 | 22991 ft | 363 kts | 82° |
| 2026-04-11 18:25 | 59.07517 | 35.19865 | 22991 ft | 364 kts | 82° |
| 2026-04-11 18:25 | 59.07973 | 35.26352 | 22991 ft | 364 kts | 82° |
| 2026-04-11 18:25 | 59.08313 | 35.31223 | 22991 ft | 365 kts | 82° |
| 2026-04-11 18:26 | 59.08990 | 35.40985 | 22991 ft | 366 kts | 82° |
| 2026-04-11 18:26 | 59.09327 | 35.45873 | 22991 ft | 366 kts | 82° |
| 2026-04-11 18:26 | 59.09663 | 35.50771 | 22991 ft | 367 kts | 82° |
| 2026-04-11 18:26 | 59.09886 | 35.54043 | 22991 ft | 367 kts | 82° |
| 2026-04-11 18:27 | 59.10332 | 35.60592 | 22991 ft | 367 kts | 82° |
| 2026-04-11 18:27 | 59.10664 | 35.65502 | 22991 ft | 368 kts | 82° |
| 2026-04-11 18:27 | 59.10995 | 35.70431 | 22991 ft | 368 kts | 82° |
| 2026-04-11 18:27 | 59.11325 | 35.75358 | 22991 ft | 368 kts | 82° |
| 2026-04-11 18:28 | 59.11653 | 35.80288 | 22991 ft | 369 kts | 82° |
| 2026-04-11 18:28 | 59.11979 | 35.85228 | 22991 ft | 369 kts | 82° |
| 2026-04-11 18:28 | 59.12305 | 35.90172 | 22991 ft | 369 kts | 82° |
| 2026-04-11 18:28 | 59.12628 | 35.95121 | 22991 ft | 370 kts | 82° |
| 2026-04-11 18:29 | 59.12950 | 36.00073 | 22991 ft | 370 kts | 82° |
| 2026-04-11 18:29 | 59.13270 | 36.05029 | 22991 ft | 370 kts | 82° |
| 2026-04-11 18:29 | 59.13589 | 36.09991 | 22991 ft | 370 kts | 82° |
| 2026-04-11 18:29 | 59.13906 | 36.14957 | 22991 ft | 371 kts | 82° |
| 2026-04-11 18:30 | 59.14221 | 36.19920 | 22989 ft | 369 kts | 82° |
| 2026-04-11 18:30 | 59.14530 | 36.24836 | 22988 ft | 365 kts | 82° |
| 2026-04-11 18:30 | 59.14834 | 36.29690 | 22988 ft | 360 kts | 82° |
| 2026-04-11 18:30 | 59.15133 | 36.34500 | 22989 ft | 356 kts | 82° |
| 2026-04-11 18:31 | 59.15426 | 36.39247 | 22989 ft | 353 kts | 83° |
| 2026-04-11 18:31 | 59.15716 | 36.43966 | 22989 ft | 349 kts | 83° |
| 2026-04-11 18:31 | 59.16000 | 36.48614 | 22986 ft | 339 kts | 83° |
| 2026-04-11 18:31 | 59.16268 | 36.53055 | 22857 ft | 324 kts | 83° |
| 2026-04-11 18:32 | 59.16525 | 36.57329 | 22613 ft | 313 kts | 82° |
| 2026-04-11 18:32 | 59.16772 | 36.61474 | 22350 ft | 304 kts | 82° |
| 2026-04-11 18:32 | 59.17011 | 36.65505 | 22087 ft | 296 kts | 82° |
| 2026-04-11 18:32 | 59.17242 | 36.69433 | 21830 ft | 289 kts | 82° |
| 2026-04-11 18:33 | 59.17468 | 36.73272 | 21575 ft | 283 kts | 82° |
| 2026-04-11 18:33 | 59.17693 | 36.77104 | 21327 ft | 289 kts | 82° |
| 2026-04-11 18:33 | 59.17925 | 36.81044 | 21083 ft | 299 kts | 82° |
| 2026-04-11 18:33 | 59.18166 | 36.85136 | 20842 ft | 310 kts | 82° |
| 2026-04-11 18:34 | 59.18415 | 36.89378 | 20596 ft | 321 kts | 82° |
| 2026-04-11 18:34 | 59.18670 | 36.93769 | 20347 ft | 332 kts | 82° |
| 2026-04-11 18:34 | 59.18932 | 36.98298 | 20057 ft | 341 kts | 82° |
| 2026-04-11 18:34 | 59.19197 | 37.02922 | 19687 ft | 346 kts | 82° |
| 2026-04-11 18:35 | 59.19464 | 37.07609 | 19306 ft | 351 kts | 83° |
| 2026-04-11 18:35 | 59.19732 | 37.12365 | 18925 ft | 356 kts | 83° |
| 2026-04-11 18:35 | 59.19998 | 37.17138 | 18540 ft | 352 kts | 83° |
| 2026-04-11 18:35 | 59.20256 | 37.21823 | 18154 ft | 346 kts | 83° |
| 2026-04-11 18:36 | 59.20508 | 37.26434 | 17769 ft | 340 kts | 83° |
| 2026-04-11 18:36 | 59.20755 | 37.30974 | 17388 ft | 335 kts | 83° |
| 2026-04-11 18:36 | 59.20996 | 37.35452 | 17011 ft | 330 kts | 83° |
| 2026-04-11 18:36 | 59.21234 | 37.39886 | 16636 ft | 331 kts | 83° |
| 2026-04-11 18:37 | 59.21474 | 37.44380 | 16265 ft | 338 kts | 83° |
| 2026-04-11 18:37 | 59.21719 | 37.48972 | 15892 ft | 344 kts | 83° |
| 2026-04-11 18:37 | 59.21967 | 37.53644 | 15514 ft | 350 kts | 83° |
| 2026-04-11 18:37 | 59.22216 | 37.58385 | 15133 ft | 354 kts | 83° |
| 2026-04-11 18:38 | 59.22467 | 37.63186 | 14752 ft | 359 kts | 83° |
| 2026-04-11 18:38 | 59.22719 | 37.68044 | 14370 ft | 362 kts | 83° |
| 2026-04-11 18:38 | 59.22967 | 37.72888 | 13985 ft | 357 kts | 83° |
| 2026-04-11 18:38 | 59.23210 | 37.77656 | 13600 ft | 351 kts | 84° |
| 2026-04-11 18:39 | 59.23447 | 37.82360 | 13189 ft | 346 kts | 84° |
| 2026-04-11 18:39 | 59.23677 | 37.86967 | 12680 ft | 337 kts | 84° |
| 2026-04-11 18:39 | 59.23730 | 37.91470 | 12191 ft | 329 kts | 95° |
| 2026-04-11 18:39 | 59.23171 | 37.95689 | 11827 ft | 317 kts | 110° |
| 2026-04-11 18:40 | 59.22585 | 37.98275 | 11575 ft | 310 kts | 116° |
| 2026-04-11 18:40 | 59.21141 | 38.02998 | 11064 ft | 300 kts | 125° |
| 2026-04-11 18:40 | 59.19936 | 38.06252 | 10679 ft | 294 kts | 128° |
| 2026-04-11 18:40 | 59.18687 | 38.09348 | 10297 ft | 289 kts | 130° |
| 2026-04-11 18:41 | 59.17420 | 38.12342 | 9921 ft | 287 kts | 131° |
| 2026-04-11 18:41 | 59.16134 | 38.15302 | 9547 ft | 287 kts | 132° |
| 2026-04-11 18:41 | 59.14842 | 38.18245 | 9171 ft | 287 kts | 133° |
| 2026-04-11 18:41 | 59.13544 | 38.21187 | 8792 ft | 287 kts | 133° |
| 2026-04-11 18:42 | 59.12246 | 38.24125 | 8411 ft | 287 kts | 133° |
| 2026-04-11 18:42 | 59.10948 | 38.27067 | 8028 ft | 287 kts | 133° |
| 2026-04-11 18:42 | 59.09652 | 38.30007 | 7650 ft | 287 kts | 133° |
| 2026-04-11 18:42 | 59.08359 | 38.32942 | 7275 ft | 286 kts | 133° |
| 2026-04-11 18:43 | 59.07070 | 38.35870 | 6901 ft | 286 kts | 133° |
| 2026-04-11 18:43 | 59.05782 | 38.38795 | 6526 ft | 285 kts | 134° |
| 2026-04-11 18:43 | 59.04500 | 38.41707 | 6167 ft | 283 kts | 134° |
| 2026-04-11 18:43 | 59.03248 | 38.44553 | 5914 ft | 273 kts | 134° |
| 2026-04-11 18:44 | 59.02028 | 38.47321 | 5555 ft | 269 kts | 134° |
| 2026-04-11 18:44 | 59.00834 | 38.50079 | 5143 ft | 268 kts | 132° |
| 2026-04-11 18:44 | 58.99992 | 38.53238 | 4702 ft | 260 kts | 116° |
| 2026-04-11 18:44 | 58.99544 | 38.56583 | 4208 ft | 254 kts | 104° |
| 2026-04-11 18:45 | 58.99340 | 38.59849 | 3752 ft | 237 kts | 98° |
| 2026-04-11 18:45 | 58.99268 | 38.62957 | 3250 ft | 227 kts | 95° |
| 2026-04-11 18:45 | 58.99262 | 38.65967 | 2748 ft | 219 kts | 92° |
| 2026-04-11 18:45 | 58.99276 | 38.68804 | 2314 ft | 202 kts | 87° |
| 2026-04-11 18:46 | 58.99306 | 38.71434 | 1937 ft | 190 kts | 86° |
| 2026-04-11 18:46 | 58.99350 | 38.73864 | 1741 ft | 172 kts | 86° |
| 2026-04-11 18:46 | 58.99394 | 38.76149 | 1647 ft | 174 kts | 86° |
| 2026-04-11 18:46 | 58.99441 | 38.78568 | 1640 ft | 185 kts | 87° |
| 2026-04-11 18:47 | 58.99488 | 38.81102 | 1635 ft | 191 kts | 87° |
| 2026-04-11 18:47 | 58.99532 | 38.83687 | 1629 ft | 191 kts | 87° |
| 2026-04-11 18:47 | 58.99573 | 38.86220 | 1621 ft | 187 kts | 87° |
| 2026-04-11 18:47 | 58.99612 | 38.88716 | 1674 ft | 183 kts | 87° |
| 2026-04-11 18:48 | 58.99648 | 38.91142 | 1801 ft | 178 kts | 86° |
| 2026-04-11 18:48 | 58.99683 | 38.93544 | 1938 ft | 180 kts | 86° |
| 2026-04-11 18:48 | 58.99721 | 38.96009 | 1994 ft | 187 kts | 86° |
| 2026-04-11 18:48 | 58.99761 | 38.98528 | 1997 ft | 187 kts | 86° |
| 2026-04-11 18:49 | 58.99799 | 39.01046 | 1993 ft | 185 kts | 86° |
| 2026-04-11 18:49 | 58.99833 | 39.03404 | 1972 ft | 167 kts | 86° |
| 2026-04-11 18:49 | 58.99864 | 39.05610 | 1989 ft | 162 kts | 85° |
| 2026-04-11 18:49 | 58.99898 | 39.07815 | 2007 ft | 169 kts | 85° |
| 2026-04-11 18:50 | 59.00177 | 39.10061 | 1960 ft | 177 kts | 64° |
| 2026-04-11 18:50 | 59.01067 | 39.11622 | 1997 ft | 174 kts | 31° |
| 2026-04-11 18:50 | 59.02217 | 39.11951 | 2029 ft | 165 kts | 0° |
| 2026-04-11 18:50 | 59.03350 | 39.11662 | 2017 ft | 165 kts | 351° |
| 2026-04-11 18:51 | 59.04489 | 39.11352 | 1997 ft | 166 kts | 353° |
| 2026-04-11 18:51 | 59.05634 | 39.11166 | 1999 ft | 165 kts | 356° |
| 2026-04-11 18:51 | 59.06764 | 39.11102 | 2017 ft | 165 kts | 358° |
| 2026-04-11 18:51 | 59.07916 | 39.11117 | 2014 ft | 166 kts | 0° |
| 2026-04-11 18:52 | 59.09081 | 39.11201 | 1928 ft | 171 kts | 2° |
| 2026-04-11 18:52 | 59.10282 | 39.11342 | 1786 ft | 176 kts | 2° |
| 2026-04-11 18:52 | 59.11503 | 39.11448 | 1709 ft | 175 kts | 2° |
| 2026-04-11 18:52 | 59.12700 | 39.11619 | 1457 ft | 162 kts | 2° |
| 2026-04-11 18:53 | 59.13742 | 39.11760 | 1251 ft | 141 kts | 2° |
| 2026-04-11 18:53 | 59.14675 | 39.11860 | 1070 ft | 129 kts | 2° |
| 2026-04-11 18:53 | 59.15567 | 39.11946 | 919 ft | 138 kts | 2° |
| 2026-04-11 18:53 | 59.16517 | 39.12060 | 775 ft | 131 kts | 2° |
| 2026-04-11 18:54 | 59.17369 | 39.12144 | 633 ft | 115 kts | 2° |
| 2026-04-11 18:54 | 59.18086 | 39.12217 | 621 ft | 90 kts | 5° |
| 2026-04-11 18:54 | 59.18582 | 39.12277 | 620 ft | 56 kts | 5° |
| 2026-04-11 18:54 | 59.18888 | 39.12305 | 620 ft | 32 kts | 3° |
| 2026-04-11 18:55 | 59.19059 | 39.12329 | 620 ft | 23 kts | 4° |
| 2026-04-11 18:55 | 59.19220 | 39.12347 | 620 ft | 24 kts | 3° |
| 2026-04-11 18:55 | 59.19402 | 39.12367 | 620 ft | 28 kts | 3° |
| 2026-04-11 18:55 | 59.19569 | 39.12381 | 620 ft | 19 kts | 2° |
| 2026-04-11 18:56 | 59.19699 | 39.12392 | 620 ft | 18 kts | 2° |
| 2026-04-11 18:56 | 59.19769 | 39.12426 | 620 ft | 9 kts | 37° |
| 2026-04-11 18:56 | 59.19798 | 39.12575 | 620 ft | 13 kts | 93° |
| 2026-04-11 18:56 | 59.19793 | 39.12748 | 620 ft | 13 kts | 93° |
| 2026-04-11 18:57 | 59.19769 | 39.12891 | 620 ft | 9 kts | 146° |
| 2026-04-11 18:57 | 59.19703 | 39.12909 | 620 ft | 9 kts | 182° |
| 2026-04-11 18:57 | 59.19633 | 39.12903 | 620 ft | 15 kts | 182° |
| 2026-04-11 18:57 | 59.19519 | 39.12917 | 620 ft | 12 kts | 134° |
| 2026-04-11 18:58 | 59.19524 | 39.13044 | 620 ft | 9 kts | 45° |
| 2026-04-11 18:58 | 59.19567 | 39.13033 | 620 ft | 5 kts | 304° |
| 2026-04-11 18:58 | 59.19569 | 39.13009 | 620 ft | 0 kts | 274° |